Latest Weather Observations for Gove Airport

IDD60801

Issued at 6:03 pm CST Saturday 18 April 2015 (issued every 30 minutes, with the page automatically refreshed every 10 minutes)

About weather observations | Map of weather stations | Latest weather observations for NT | Other Formats
Station Details ID: 014508 Name: GOVE AIRPORT Lat: -12.27 Lon: 136.82 Height: 51.6 m
Data from the previous 72 hours. | See also: Recent months at Gove Airport
Date/Time
CST
Temp
°C
App
Temp
°C
Dew
Point
Rel
Hum
%
Delta-T
°C
Wind Press
QNH
hPa
Press
MSL
hPa
Rain
since 9 am
mm
Dir
 
Spd
km/h
Gust
km/h
Spd
kts
Gust
kts
18/05:30pm 29.2 32.1 23.9 73 3.7 SSE 15 24 8 13 1010.5 - 0.0
18/05:00pm 28.9 32.0 23.5 72 3.7 SSE 13 20 7 11 1010.2 - 0.0
18/04:30pm 29.6 32.3 23.5 69 4.2 SSE 15 24 8 13 1010.1 - 0.0
18/04:00pm 30.1 31.5 22.8 65 5.0 ESE 20 30 11 16 1010.0 - 0.0
18/03:30pm 31.0 32.0 22.2 59 6.0 E 20 30 11 16 1009.8 - 0.0
18/03:00pm 31.0 31.8 22.5 60 5.8 E 22 33 12 18 1009.9 1009.5 0.0
18/02:30pm 31.2 31.5 21.6 56 6.5 E 22 32 12 17 1010.3 - 0.0
18/02:00pm 31.3 31.9 21.4 55 6.7 E 20 28 11 15 1010.6 - 0.0
18/01:30pm 31.0 32.1 22.0 58 6.1 ESE 19 28 10 15 1010.9 - 0.0
18/01:00pm 30.4 31.1 21.5 59 6.0 E 20 28 11 15 1011.1 - 0.0
18/12:30pm 30.1 31.6 22.0 62 5.5 E 17 24 9 13 1011.6 - 0.0
18/12:00pm 30.8 32.0 22.1 59 5.9 E 19 24 10 13 1012.0 1011.6 0.0
18/11:30am 29.8 30.1 21.5 61 5.6 E 22 35 12 19 1012.6 - 0.0
18/11:00am 30.6 30.2 21.0 56 6.4 E 24 33 13 18 1013.1 - 0.0
18/10:30am 30.5 30.9 20.7 55 6.5 E 19 24 10 13 1013.4 - 0.0
18/10:00am 28.5 30.5 21.6 66 4.6 E 13 20 7 11 1013.6 - 0.0
18/09:30am 26.6 28.0 22.5 78 2.8 ENE 19 28 10 15 1013.7 - 0.0
18/09:00am 26.4 27.1 23.0 81 2.3 E 24 41 13 22 1013.6 1013.2 0.2
18/08:30am 28.1 30.5 23.7 77 3.0 ESE 17 22 9 12 1013.2 - 0.2
18/07:00am 22.1 25.8 21.5 96 0.4 S 4 7 2 4 1012.4 - 0.2
18/06:30am 21.5 25.6 20.7 95 0.5 CALM 0 0 0 0 1012.1 - 0.2
18/05:30am 21.6 24.6 20.8 95 0.5 S 6 9 3 5 1011.4 - 0.2
18/05:00am 21.6 24.4 20.8 95 0.5 S 7 9 4 5 1011.1 - 0.2
18/04:30am 21.6 24.5 20.7 95 0.6 S 6 7 3 4 1011.0 - 0.2
18/04:00am 21.8 25.6 20.9 95 0.6 SSW 2 6 1 3 1010.9 - 0.2
18/03:30am 22.3 26.5 20.9 92 0.9 CALM 0 0 0 0 1010.9 - 0.2
18/03:00am 23.6 26.9 21.9 90 1.1 N 7 9 4 5 1011.0 1010.6 0.2
18/02:30am 23.5 27.8 22.0 91 1.0 E 2 6 1 3 1011.0 - 0.2
18/02:00am 24.2 27.8 22.1 88 1.4 ENE 6 7 3 4 1011.3 - 0.2
18/01:30am 24.2 27.7 22.1 88 1.4 NNE 7 9 4 5 1011.4 - 0.2
18/01:00am 24.5 27.7 22.4 88 1.4 E 9 11 5 6 1011.9 - 0.2
18/12:30am 24.0 27.3 22.5 91 1.0 N 9 9 5 5 1012.0 - 0.2
18/12:00am 23.9 27.8 22.6 92 0.9 SSE 6 7 3 4 1012.3 1011.9 0.2
 
Date/Time
CST
Temp
°C
App
Temp
°C
Dew
Point
Rel
Hum
%
Delta-T
°C
Wind Press
QNH
hPa
Press
MSL
hPa
Rain
since 9 am
mm
Dir
 
Spd
km/h
Gust
km/h
Spd
kts
Gust
kts
17/11:30pm 24.3 28.3 22.7 91 1.1 SSE 6 7 3 4 1012.5 - 0.2
17/11:00pm 23.9 29.0 22.7 93 0.8 CALM 0 0 0 0 1012.5 - 0.2
17/10:30pm 24.0 29.1 22.7 92 0.9 CALM 0 0 0 0 1012.6 - 0.2
17/10:00pm 24.6 28.7 23.0 91 1.1 SSE 6 7 3 4 1012.5 - 0.2
17/09:30pm 24.7 28.7 23.1 91 1.1 SSE 7 9 4 5 1012.4 - 0.2
17/09:00pm 24.5 28.6 23.0 91 1.0 SE 6 7 3 4 1012.2 1011.8 0.2
17/08:30pm 25.1 29.3 23.2 89 1.3 ESE 6 7 3 4 1012.0 - 0.2
17/07:30pm 27.5 31.2 23.3 78 2.9 E 9 11 5 6 1011.3 - 0.2
17/07:00pm 27.9 31.6 23.2 75 3.2 E 9 11 5 6 1011.0 - 0.2
17/06:30pm 28.3 32.0 23.3 74 3.4 E 9 15 5 8 1010.8 - 0.2
17/05:30pm 29.4 31.3 22.8 67 4.5 E 17 24 9 13 1010.4 - 0.2
17/05:00pm 29.9 31.4 22.7 65 4.9 E 19 26 10 14 1010.2 - 0.2
17/04:30pm 30.5 31.5 22.1 61 5.7 E 20 32 11 17 1010.0 - 0.2
17/04:00pm 31.0 31.7 22.2 59 6.0 E 22 32 12 17 1010.0 - 0.2
17/03:30pm 30.8 31.3 22.6 61 5.6 E 24 32 13 17 1010.2 - 0.2
17/03:00pm 30.6 31.4 22.4 61 5.6 E 22 35 12 19 1010.2 1009.8 0.2
17/02:30pm 30.9 31.4 22.6 61 5.7 E 24 33 13 18 1010.3 - 0.2
17/02:00pm 30.8 31.4 22.8 62 5.5 E 24 37 13 20 1010.7 - 0.2
17/01:30pm 31.5 32.2 22.9 60 5.9 E 24 35 13 19 1011.1 - 0.2
17/01:00pm 31.4 31.9 22.6 59 6.0 E 24 33 13 18 1011.6 - 0.2
17/12:30pm 30.7 30.3 22.3 61 5.7 E 28 41 15 22 1012.1 - 0.2
17/12:00pm 31.5 31.8 22.3 58 6.3 E 24 32 13 17 1012.5 1012.1 0.2
17/11:30am 31.1 31.2 22.5 60 5.9 E 26 35 14 19 1012.8 - 0.2
17/11:00am 30.9 32.2 23.4 64 5.2 E 22 30 12 16 1013.2 - 0.2
17/10:30am 28.7 30.7 25.1 81 2.5 E 24 32 13 17 1013.5 - 0.0
17/10:00am 30.1 30.3 23.4 67 4.6 ENE 28 39 15 21 1013.6 - 0.0
17/09:30am 30.0 31.5 24.3 71 4.0 E 24 35 13 19 1013.6 - 0.0
17/09:00am 27.9 32.0 25.2 85 1.9 E 13 - 7 - - 1013.3 0.4
17/08:56am 27.8 30.7 24.5 82 2.3 E 17 24 9 13 1013.6 - 0.4
17/08:30am 28.8 30.3 23.1 71 3.9 E 20 26 11 14 1013.5 - 0.0
17/08:00am 28.8 31.4 23.3 72 3.8 E 15 22 8 12 1013.1 - 0.0
17/07:30am 27.3 31.1 23.4 79 2.7 ESE 9 11 5 6 1013.0 - 0.0
17/07:00am 23.5 28.6 22.6 95 0.6 CALM 0 0 0 0 1012.8 - 0.0
17/06:30am 22.8 27.5 21.9 95 0.6 CALM 0 0 0 0 1012.5 - 0.0
17/06:00am 22.8 27.4 21.7 93 0.7 CALM 0 0 0 0 1012.2 1011.8 0.0
17/05:30am 22.8 26.3 21.9 95 0.6 SSE 6 7 3 4 1011.9 - 0.0
17/05:00am 23.1 27.7 21.7 92 0.9 CALM 0 4 0 2 1011.8 - 0.0
17/04:30am 23.7 27.3 22.0 90 1.1 E 6 7 3 4 1011.7 - 0.0
17/04:00am 23.8 26.9 22.2 91 1.1 E 9 9 5 5 1011.7 - 0.0
17/03:30am 24.2 27.4 22.3 89 1.3 SSE 9 11 5 6 1011.7 - 0.0
17/03:00am 23.8 27.2 22.0 90 1.2 SSE 7 9 4 5 1011.6 1011.2 0.0
17/02:30am 24.3 27.8 22.2 88 1.4 ESE 7 7 4 4 1011.8 - 0.0
17/02:00am 24.4 27.6 22.3 88 1.4 ESE 9 9 5 5 1012.2 - 0.0
17/01:30am 25.0 28.7 22.5 86 1.7 ESE 7 9 4 5 1012.6 - 0.0
17/01:00am 25.1 28.3 22.4 85 1.8 E 9 9 5 5 1012.9 - 0.0
17/12:30am 25.4 28.6 22.4 83 2.0 SE 9 11 5 6 1013.5 - 0.0
17/12:00am 25.3 28.6 22.5 84 1.9 E 9 13 5 7 1014.0 1013.6 0.0
 
Date/Time
CST
Temp
°C
App
Temp
°C
Dew
Point
Rel
Hum
%
Delta-T
°C
Wind Press
QNH
hPa
Press
MSL
hPa
Rain
since 9 am
mm
Dir
 
Spd
km/h
Gust
km/h
Spd
kts
Gust
kts
16/11:30pm 25.4 28.6 22.3 83 2.1 E 9 13 5 7 1014.3 - 0.0
16/11:00pm 25.1 28.3 22.3 84 1.9 ENE 9 11 5 6 1014.5 - 0.0
16/10:30pm 25.3 28.6 22.5 84 1.9 ESE 9 11 5 6 1014.6 - 0.0
16/10:00pm 25.5 28.8 22.5 83 2.0 ESE 9 9 5 5 1014.9 - 0.0
16/09:30pm 25.7 29.3 22.4 82 2.2 ESE 7 9 4 5 1014.9 - 0.0
16/09:00pm 26.1 29.4 22.5 80 2.4 ENE 9 9 5 5 1014.6 1014.2 0.0
16/08:30pm 26.4 30.1 22.6 79 2.6 E 7 11 4 6 1014.4 - 0.0
16/08:00pm 27.0 30.2 22.4 76 3.1 ESE 9 13 5 7 1013.9 - 0.0
16/07:30pm 26.8 30.0 22.4 77 3.0 E 9 11 5 6 1013.3 - 0.0
16/07:00pm 27.7 30.0 22.1 71 3.8 ESE 13 15 7 8 1012.9 - 0.0
16/06:30pm 28.1 30.3 21.9 69 4.2 E 13 19 7 10 1012.7 - 0.0
16/06:00pm 28.7 29.4 21.5 65 4.8 ESE 20 28 11 15 1012.5 1012.1 0.0
16/05:30pm 29.5 30.7 22.1 64 5.0 E 19 28 10 15 1012.3 - 0.0
16/05:00pm 29.6 30.2 22.1 64 5.1 ESE 22 28 12 15 1012.1 - 0.0
16/04:30pm 30.1 31.2 22.0 62 5.5 E 19 22 10 12 1012.0 - 0.0
16/04:00pm 29.8 31.6 22.5 65 5.0 ESE 17 20 9 11 1012.0 - 0.0
16/03:30pm 30.6 31.3 21.6 58 6.1 E 20 28 11 15 1012.0 - 0.0
16/03:00pm 31.0 31.4 21.7 57 6.3 E 22 30 12 16 1012.0 1011.6 0.0
16/02:30pm 30.7 30.5 20.6 54 6.7 E 22 30 12 16 1012.2 - 0.0
16/02:00pm 30.5 31.3 21.8 59 5.9 E 20 32 11 17 1012.7 - 0.0
16/01:30pm 30.6 30.2 20.9 56 6.5 ENE 24 30 13 16 1012.9 - 0.0
16/01:00pm 31.6 30.9 21.0 53 7.1 ENE 26 35 14 19 1013.2 - 0.0
16/12:30pm 31.2 30.5 21.1 55 6.8 E 26 35 14 19 1013.5 - 0.0
16/12:00pm 31.5 30.9 21.2 54 6.9 E 26 35 14 19 1013.9 1013.5 0.0
16/11:30am 30.7 31.2 22.0 59 5.9 E 22 32 12 17 1014.5 - 0.0
16/11:00am 30.6 29.7 21.5 58 6.1 E 28 41 15 22 1014.9 - 0.0
16/10:30am 31.3 30.7 21.9 57 6.4 E 28 37 15 20 1015.3 - 0.0
16/10:00am 30.7 30.4 21.8 59 6.0 E 26 35 14 19 1015.5 - 0.0
16/09:30am 30.4 29.8 22.0 60 5.7 E 28 35 15 19 1015.4 - 0.0
16/09:00am 30.0 30.4 22.5 64 5.1 E 24 35 13 19 1015.1 1014.8 0.0
16/08:30am 30.0 29.8 22.7 65 5.0 E 28 37 15 20 1014.8 - 0.0
16/08:00am 28.8 29.1 22.3 68 4.4 E 24 33 13 18 1014.6 - 0.0
16/07:30am 28.0 30.9 23.9 78 2.8 E 15 22 8 12 1014.6 - 0.0
16/07:00am 26.6 30.2 23.8 84 1.9 E 11 15 6 8 1014.2 - 0.0
16/06:30am 25.9 29.1 23.7 88 1.5 E 13 20 7 11 1013.7 - 0.0
16/06:00am 25.6 29.3 23.2 86 1.6 E 9 20 5 11 1013.7 1013.3 0.0
16/05:30am 25.2 27.9 22.2 83 2.0 SE 11 13 6 7 1013.4 - 0.0
16/05:00am 26.2 26.4 22.0 77 2.8 ESE 24 35 13 19 1013.4 - 0.0
16/04:30am 26.7 30.3 23.0 80 2.5 SE 9 15 5 8 1013.0 - 0.0
16/04:00am 26.3 29.9 23.1 82 2.2 ESE 9 13 5 7 1013.0 - 0.0
16/03:30am 25.8 29.3 22.8 83 2.0 ESE 9 11 5 6 1013.0 - 0.0
16/03:00am 25.5 29.3 22.7 84 1.9 E 7 11 4 6 1013.1 1012.7 0.0
16/02:30am 26.4 29.8 22.7 80 2.5 ESE 9 17 5 9 1013.2 - 0.0
16/02:00am 27.2 29.7 22.5 75 3.2 ESE 13 19 7 10 1013.5 - 0.0
16/01:30am 27.2 29.6 22.2 74 3.4 ESE 13 17 7 9 1013.8 - 0.0
16/01:00am 27.2 29.1 22.0 73 3.5 ESE 15 19 8 10 1014.2 - 0.0
16/12:30am 27.1 29.0 22.0 73 3.4 ESE 15 17 8 9 1014.5 - 0.0
16/12:00am 27.3 28.7 21.9 72 3.6 ESE 17 20 9 11 1014.8 1014.5 0.0
 
Date/Time
CST
Temp
°C
App
Temp
°C
Dew
Point
Rel
Hum
%
Delta-T
°C
Wind Press
QNH
hPa
Press
MSL
hPa
Rain
since 9 am
mm
Dir
 
Spd
km/h
Gust
km/h
Spd
kts
Gust
kts
15/11:30pm 27.6 28.4 21.3 68 4.2 ESE 19 22 10 12 1015.1 - 0.0
15/11:00pm 27.5 28.8 21.7 70 3.9 ESE 17 24 9 13 1015.3 - 0.0
15/10:30pm 27.6 29.0 21.9 71 3.8 ESE 17 22 9 12 1015.3 - 0.0
15/10:00pm 27.5 29.5 22.2 73 3.6 ESE 15 17 8 9 1015.4 - 0.0
15/09:30pm 27.4 29.8 22.2 73 3.5 ESE 13 19 7 10 1015.3 - 0.0
15/09:00pm 27.7 29.4 21.7 70 4.0 ESE 15 20 8 11 1015.0 1014.7 0.0
15/08:30pm 27.9 29.1 21.5 68 4.3 ESE 17 20 9 11 1014.8 - 0.0
15/08:00pm 27.9 29.8 22.1 70 3.9 ESE 15 20 8 11 1014.5 - 0.0
15/07:30pm 28.1 29.6 22.0 69 4.1 ESE 17 20 9 11 1014.1 - 0.0
15/07:00pm 28.2 29.7 22.0 69 4.2 ESE 17 20 9 11 1013.7 - 0.0
15/06:30pm 28.5 30.1 22.1 68 4.3 ESE 17 24 9 13 1013.5 - 0.0

Other Formats:

Comma delimited format used in spreadsheet applications
http://www.bom.gov.au/fwo/IDD60801/IDD60801.94150.axf

JavaScript Object Notation format (JSON) in row-major order
http://www.bom.gov.au/fwo/IDD60801/IDD60801.94150.json